createdAt,value
2022-10-14T00:00:48.252Z,13.18
2022-10-14T00:01:49.839Z,13.18
2022-10-14T00:02:51.452Z,13.19
2022-10-14T00:03:54.688Z,13.19
2022-10-14T00:04:56.459Z,13.17
2022-10-14T00:05:58.320Z,13.14
2022-10-14T00:06:59.751Z,13.12
2022-10-14T00:08:01.471Z,13.12
2022-10-14T00:09:06.418Z,13.14
2022-10-14T00:10:08.136Z,13.10
2022-10-14T00:11:13.631Z,13.03
2022-10-14T00:12:15.166Z,13.13
2022-10-14T00:13:17.384Z,13.13
2022-10-14T00:14:20.297Z,13.12
2022-10-14T00:15:21.623Z,13.08
2022-10-14T00:16:30.012Z,13.05
2022-10-14T00:17:31.506Z,13.05
2022-10-14T00:18:33.075Z,13.05
2022-10-14T00:19:34.544Z,13.04
2022-10-14T00:20:36.023Z,13.03
2022-10-14T00:21:39.204Z,13.02
2022-10-14T00:22:40.645Z,13.04
2022-10-14T00:23:42.566Z,13.04
2022-10-14T00:24:44.041Z,13.00
2022-10-14T00:25:46.243Z,13.01
2022-10-14T00:26:47.770Z,13.01
2022-10-14T00:27:49.190Z,12.99
2022-10-14T00:28:51.318Z,13.03
2022-10-14T00:29:52.951Z,13.03
2022-10-14T00:31:00.498Z,13.04
2022-10-14T00:32:01.964Z,12.99
2022-10-14T00:33:03.477Z,13.01
2022-10-14T00:34:05.122Z,13.00
2022-10-14T00:35:06.827Z,13.00
2022-10-14T00:36:11.194Z,13.01
2022-10-14T00:37:12.623Z,13.01
2022-10-14T00:38:14.086Z,13.01
2022-10-14T00:39:16.178Z,13.02
2022-10-14T00:40:17.761Z,13.04
2022-10-14T00:41:26.952Z,13.06
2022-10-14T00:42:28.439Z,13.07
2022-10-14T00:43:30.482Z,13.07
2022-10-14T00:44:31.891Z,13.08
2022-10-14T00:45:34.755Z,13.09
2022-10-14T00:46:45.489Z,13.08
2022-10-14T00:47:49.501Z,13.03
2022-10-14T00:48:51.623Z,13.03
2022-10-14T00:49:53.218Z,13.03
2022-10-14T00:50:57.659Z,13.03
2022-10-14T00:52:03.216Z,13.04
2022-10-14T00:53:04.739Z,13.04
2022-10-14T00:54:07.308Z,13.04
2022-10-14T00:55:15.311Z,13.05
2022-10-14T00:56:22.431Z,13.03
2022-10-14T00:57:25.816Z,13.00
2022-10-14T00:58:28.080Z,12.97
2022-10-14T00:59:30.381Z,12.96
2022-10-14T01:00:32.200Z,12.98
2022-10-14T01:01:34.488Z,12.95
2022-10-14T01:02:36.370Z,12.98
2022-10-14T01:03:37.889Z,12.94
2022-10-14T01:04:42.261Z,12.96
2022-10-14T01:05:58.840Z,12.95
2022-10-14T01:07:43.996Z,12.92
2022-10-14T01:08:53.970Z,12.94
2022-10-14T01:10:20.179Z,12.97
2022-10-14T01:11:40.967Z,12.99
2022-10-14T01:13:05.327Z,13.00
2022-10-14T01:14:21.272Z,12.98
2022-10-14T01:15:38.704Z,12.99
2022-10-14T01:16:53.798Z,13.01
2022-10-14T01:18:25.014Z,13.01
2022-10-14T01:19:41.428Z,13.02
2022-10-14T01:20:54.489Z,13.03
2022-10-14T01:22:25.620Z,13.06
2022-10-14T01:23:54.110Z,13.04
2022-10-14T01:25:24.869Z,13.04
2022-10-14T01:26:47.543Z,13.02
2022-10-14T01:28:06.829Z,13.02
2022-10-14T01:29:26.401Z,13.05
2022-10-14T01:30:34.086Z,13.06
2022-10-14T01:31:38.356Z,13.07
2022-10-14T01:33:04.484Z,13.10
2022-10-14T01:34:10.796Z,13.09
2022-10-14T01:35:23.444Z,13.10
2022-10-14T01:36:33.785Z,13.10
2022-10-14T01:37:39.663Z,13.12
2022-10-14T01:39:12.686Z,13.10
2022-10-14T01:40:21.903Z,13.10
2022-10-14T01:41:27.919Z,13.10
2022-10-14T01:42:35.168Z,13.13
2022-10-14T01:43:38.962Z,13.14
2022-10-14T01:44:54.076Z,13.13
2022-10-14T01:45:57.075Z,13.15
2022-10-14T01:47:00.540Z,13.16
2022-10-14T01:48:03.984Z,13.16
2022-10-14T01:49:11.142Z,13.15
2022-10-14T01:50:16.944Z,13.15
2022-10-14T01:51:24.979Z,13.15
2022-10-14T01:52:32.694Z,13.16
2022-10-14T01:53:43.678Z,13.16
2022-10-14T01:54:48.343Z,13.15
2022-10-14T01:55:52.999Z,13.15
2022-10-14T01:56:58.354Z,13.15
2022-10-14T01:58:01.132Z,13.17
2022-10-14T01:59:04.204Z,13.16
2022-10-14T02:00:06.540Z,13.09
2022-10-14T02:01:09.414Z,13.09
2022-10-14T02:02:13.295Z,13.11
2022-10-14T02:03:14.995Z,13.12
2022-10-14T02:04:21.221Z,13.14
2022-10-14T02:05:25.737Z,13.17
2022-10-14T02:06:32.292Z,13.17
2022-10-14T02:07:42.771Z,13.16
2022-10-14T02:08:52.703Z,13.16
2022-10-14T02:10:06.994Z,13.17
2022-10-14T02:11:15.869Z,13.11
2022-10-14T02:12:29.305Z,13.13
2022-10-14T02:13:45.420Z,13.13
2022-10-14T02:14:52.680Z,13.00
2022-10-14T02:16:15.741Z,12.93
2022-10-14T02:17:32.331Z,12.96
2022-10-14T02:19:01.873Z,12.85
2022-10-14T02:20:25.058Z,12.82
2022-10-14T02:21:40.130Z,12.76
2022-10-14T02:22:46.826Z,12.77
2022-10-14T02:23:57.454Z,12.82
2022-10-14T02:25:07.524Z,12.82
2022-10-14T02:26:09.951Z,12.82
2022-10-14T02:27:15.477Z,12.83
2022-10-14T02:28:21.934Z,12.84
2022-10-14T02:29:25.541Z,12.86
2022-10-14T02:30:30.842Z,12.90
2022-10-14T02:31:35.912Z,12.84
2022-10-14T02:32:40.247Z,12.76
2022-10-14T02:33:45.197Z,12.79
2022-10-14T02:34:50.845Z,12.84
2022-10-14T02:35:53.585Z,12.85
2022-10-14T02:36:56.387Z,12.76
2022-10-14T02:37:59.603Z,12.69
2022-10-14T02:39:02.743Z,12.70
2022-10-14T02:40:14.287Z,12.76
2022-10-14T02:41:19.906Z,12.82
2022-10-14T02:42:22.189Z,12.85
2022-10-14T02:43:23.866Z,12.86
2022-10-14T02:44:25.427Z,12.84
2022-10-14T02:45:27.298Z,12.87
2022-10-14T02:46:29.202Z,12.88
2022-10-14T02:47:30.665Z,12.91
2022-10-14T02:48:32.433Z,12.90
2022-10-14T02:49:33.919Z,12.92
2022-10-14T02:50:35.464Z,12.94
2022-10-14T02:51:36.959Z,12.92
2022-10-14T02:52:38.815Z,12.93
2022-10-14T02:53:40.286Z,12.90
2022-10-14T02:54:41.779Z,12.90
2022-10-14T02:55:43.516Z,12.92
2022-10-14T02:56:44.955Z,12.94
2022-10-14T02:57:46.797Z,12.93
2022-10-14T02:58:48.299Z,12.95
2022-10-14T02:59:49.815Z,12.94
2022-10-14T03:00:51.328Z,12.90
2022-10-14T03:01:52.766Z,12.90
2022-10-14T03:02:54.246Z,12.90
2022-10-14T03:03:55.667Z,12.91
2022-10-14T03:04:58.226Z,12.88
2022-10-14T03:05:59.689Z,12.89
2022-10-14T03:07:01.858Z,12.87
2022-10-14T03:08:03.384Z,12.81
2022-10-14T03:09:04.833Z,12.73
2022-10-14T03:10:06.470Z,12.72
2022-10-14T03:11:08.017Z,12.67
2022-10-14T03:12:09.789Z,12.71
2022-10-14T03:13:11.209Z,12.75
2022-10-14T03:14:12.776Z,12.74
2022-10-14T03:15:14.349Z,12.76
2022-10-14T03:16:15.802Z,12.67
2022-10-14T03:17:17.618Z,12.64
2022-10-14T03:18:19.327Z,12.60
2022-10-14T03:19:20.738Z,12.63
2022-10-14T03:20:22.201Z,12.68
2022-10-14T03:21:23.697Z,12.67
2022-10-14T03:22:26.152Z,12.69
2022-10-14T03:23:27.591Z,12.72
2022-10-14T03:24:29.023Z,12.74
2022-10-14T03:25:30.525Z,12.78
2022-10-14T03:26:32.402Z,12.79
2022-10-14T03:27:33.965Z,12.79
2022-10-14T03:28:35.460Z,12.80
2022-10-14T03:29:37.030Z,12.78
2022-10-14T03:30:38.839Z,12.79
2022-10-14T03:31:40.655Z,12.79
2022-10-14T03:32:42.077Z,12.79
2022-10-14T03:33:43.542Z,12.80
2022-10-14T03:34:45.011Z,12.80
2022-10-14T03:35:46.477Z,12.81
2022-10-14T03:36:48.297Z,12.82
2022-10-14T03:37:49.807Z,12.82
2022-10-14T03:38:51.288Z,12.84
2022-10-14T03:39:53.206Z,12.87
2022-10-14T03:40:54.870Z,12.89
2022-10-14T03:41:56.684Z,12.88
2022-10-14T03:43:01.372Z,12.88
2022-10-14T03:44:03.023Z,12.88
2022-10-14T03:45:04.959Z,12.88
2022-10-14T03:46:06.404Z,12.88
2022-10-14T03:47:08.178Z,12.87
2022-10-14T03:48:09.987Z,12.87
2022-10-14T03:49:12.314Z,12.88
2022-10-14T03:50:13.783Z,12.88
2022-10-14T03:51:15.976Z,12.92
2022-10-14T03:52:17.459Z,12.92
2022-10-14T03:53:19.181Z,12.93
2022-10-14T03:54:20.678Z,12.92
2022-10-14T03:55:22.154Z,12.83
2022-10-14T03:56:23.664Z,12.71
2022-10-14T03:57:25.167Z,12.67
2022-10-14T03:58:26.681Z,12.68
2022-10-14T03:59:28.127Z,12.62
2022-10-14T04:00:29.888Z,12.66
2022-10-14T04:01:31.773Z,12.69
2022-10-14T04:02:33.267Z,12.72
2022-10-14T04:03:34.771Z,12.76
2022-10-14T04:04:36.238Z,12.75
2022-10-14T04:05:37.687Z,12.64
2022-10-14T04:06:39.488Z,12.62
2022-10-14T04:07:40.911Z,12.64
2022-10-14T04:08:43.045Z,12.69
2022-10-14T04:09:44.489Z,12.70
2022-10-14T04:10:45.945Z,12.71
2022-10-14T04:11:47.790Z,12.70
2022-10-14T04:12:50.743Z,12.72
2022-10-14T04:13:52.103Z,12.68
2022-10-14T04:14:56.722Z,12.72
2022-10-14T04:16:03.471Z,12.75
2022-10-14T04:17:04.957Z,12.79
2022-10-14T04:18:06.437Z,12.82
2022-10-14T04:19:07.863Z,12.82
2022-10-14T04:20:10.058Z,12.82
2022-10-14T04:21:13.174Z,12.84
2022-10-14T04:22:14.705Z,12.84
2022-10-14T04:23:16.162Z,12.79
2022-10-14T04:24:17.620Z,12.71
2022-10-14T04:25:19.162Z,12.70
2022-10-14T04:26:20.921Z,12.72
2022-10-14T04:27:22.393Z,12.71
2022-10-14T04:28:24.265Z,12.72
2022-10-14T04:29:25.804Z,12.75
2022-10-14T04:30:27.324Z,12.79
2022-10-14T04:31:29.108Z,12.80
2022-10-14T04:32:30.582Z,12.82
2022-10-14T04:33:32.065Z,12.84
2022-10-14T04:34:33.656Z,12.80
2022-10-14T04:35:35.314Z,12.83
2022-10-14T04:36:38.664Z,12.76
2022-10-14T04:37:40.158Z,12.72
2022-10-14T04:38:41.604Z,12.75
2022-10-14T04:39:43.104Z,12.77
2022-10-14T04:40:45.526Z,12.73
2022-10-14T04:41:47.305Z,12.76
2022-10-14T04:42:48.808Z,12.76
2022-10-14T04:43:50.244Z,12.80
2022-10-14T04:44:51.694Z,12.80
2022-10-14T04:45:54.692Z,12.84
2022-10-14T04:46:56.167Z,12.85
2022-10-14T04:47:57.634Z,12.82
2022-10-14T04:48:59.112Z,12.79
2022-10-14T04:50:00.591Z,12.74
2022-10-14T04:51:02.087Z,12.71
2022-10-14T04:52:03.530Z,12.74
2022-10-14T04:53:04.974Z,12.72
2022-10-14T04:54:06.410Z,12.64
2022-10-14T04:55:08.252Z,12.62
2022-10-14T04:56:10.085Z,12.63
2022-10-14T04:57:11.837Z,12.65
2022-10-14T04:58:13.300Z,12.66
2022-10-14T04:59:14.955Z,12.68
2022-10-14T05:00:16.549Z,12.64
2022-10-14T05:01:19.048Z,12.59
2022-10-14T05:02:20.877Z,12.62
2022-10-14T05:03:22.698Z,12.62
2022-10-14T05:04:24.139Z,12.59
2022-10-14T05:05:26.002Z,12.63
2022-10-14T05:06:27.712Z,12.63
2022-10-14T05:07:29.335Z,12.62
2022-10-14T05:08:30.905Z,12.52
2022-10-14T05:09:33.426Z,12.56
2022-10-14T05:10:35.135Z,12.53
2022-10-14T05:11:36.698Z,12.56
2022-10-14T05:12:39.588Z,12.60
2022-10-14T05:13:40.925Z,12.61
2022-10-14T05:14:42.606Z,12.63
2022-10-14T05:15:44.232Z,12.63
2022-10-14T05:16:45.679Z,12.65
2022-10-14T05:17:47.904Z,12.65
2022-10-14T05:18:49.374Z,12.63
2022-10-14T05:19:50.792Z,12.63
2022-10-14T05:20:52.776Z,12.64
2022-10-14T05:21:54.261Z,12.61
2022-10-14T05:22:55.836Z,12.62
2022-10-14T05:23:57.323Z,12.65
2022-10-14T05:24:58.769Z,12.68
2022-10-14T05:26:00.566Z,12.70
2022-10-14T05:27:02.915Z,12.71
2022-10-14T05:28:04.853Z,12.71
2022-10-14T05:29:06.450Z,12.71
2022-10-14T05:30:08.884Z,12.71
2022-10-14T05:31:10.830Z,12.70
2022-10-14T05:32:12.251Z,12.70
2022-10-14T05:33:13.718Z,12.71
2022-10-14T05:34:15.295Z,12.73
2022-10-14T05:35:29.087Z,12.69
2022-10-14T05:36:38.451Z,12.67
2022-10-14T05:37:40.166Z,12.61
2022-10-14T05:38:41.638Z,12.54
2022-10-14T05:39:43.639Z,12.51
2022-10-14T05:40:52.070Z,12.46
2022-10-14T05:41:53.520Z,12.49
2022-10-14T05:42:54.956Z,12.45
2022-10-14T05:43:56.507Z,12.49
2022-10-14T05:44:58.067Z,12.42
2022-10-14T05:46:00.349Z,12.37
2022-10-14T05:47:01.831Z,12.39
2022-10-14T05:48:03.384Z,12.40
2022-10-14T05:49:06.078Z,12.44
2022-10-14T05:50:08.277Z,12.46
2022-10-14T05:51:09.958Z,12.48
2022-10-14T05:52:11.470Z,12.49
2022-10-14T05:53:13.038Z,12.52
2022-10-14T05:54:14.522Z,12.55
2022-10-14T05:55:16.423Z,12.59
2022-10-14T05:56:17.927Z,12.62
2022-10-14T05:57:19.362Z,12.62
2022-10-14T05:58:20.788Z,12.65
2022-10-14T05:59:22.391Z,12.63
2022-10-14T06:00:25.859Z,12.62
2022-10-14T06:01:27.605Z,12.61
2022-10-14T06:02:29.158Z,12.57
2022-10-14T06:03:30.866Z,12.62
2022-10-14T06:04:32.412Z,12.67
2022-10-14T06:05:37.221Z,12.71
2022-10-14T06:06:38.642Z,12.75
2022-10-14T06:07:40.074Z,12.80
2022-10-14T06:08:41.639Z,12.83
2022-10-14T06:09:43.607Z,12.85
2022-10-14T06:10:45.088Z,12.87
2022-10-14T06:11:46.630Z,12.89
2022-10-14T06:12:48.105Z,12.92
2022-10-14T06:13:50.092Z,12.93
2022-10-14T06:14:51.557Z,12.94
2022-10-14T06:15:53.022Z,12.95
2022-10-14T06:16:54.496Z,12.95
2022-10-14T06:17:56.145Z,12.95
2022-10-14T06:18:58.075Z,12.96
2022-10-14T06:19:59.635Z,12.98
2022-10-14T06:21:01.364Z,13.00
2022-10-14T06:22:03.637Z,13.01
2022-10-14T06:23:05.383Z,13.03
2022-10-14T06:24:07.169Z,13.03
2022-10-14T06:25:09.291Z,13.02
2022-10-14T06:26:10.816Z,13.04
2022-10-14T06:27:12.235Z,13.04
2022-10-14T06:28:13.988Z,13.06
2022-10-14T06:29:16.728Z,13.09
2022-10-14T06:30:18.167Z,13.10
2022-10-14T06:31:20.776Z,13.11
2022-10-14T06:32:22.499Z,13.10
2022-10-14T06:33:24.379Z,13.09
2022-10-14T06:34:25.848Z,13.06
2022-10-14T06:35:27.651Z,13.07
2022-10-14T06:36:29.078Z,13.11
2022-10-14T06:37:30.521Z,13.12
2022-10-14T06:38:32.228Z,13.13
2022-10-14T06:39:34.014Z,13.14
2022-10-14T06:40:36.888Z,13.16
2022-10-14T06:41:38.265Z,13.16
2022-10-14T06:42:39.925Z,13.17
2022-10-14T06:43:41.438Z,13.19
2022-10-14T06:44:43.228Z,13.16
2022-10-14T06:45:44.708Z,13.12
2022-10-14T06:46:46.459Z,13.12
2022-10-14T06:47:47.893Z,13.12
2022-10-14T06:48:50.474Z,13.12
2022-10-14T06:49:52.465Z,13.13
2022-10-14T06:50:53.917Z,13.13
2022-10-14T06:51:55.329Z,13.14
2022-10-14T06:52:56.756Z,13.14
2022-10-14T06:53:58.176Z,13.16
2022-10-14T06:55:00.021Z,13.19
2022-10-14T06:56:05.020Z,13.19
2022-10-14T06:57:06.664Z,13.20
2022-10-14T06:58:08.172Z,13.23
2022-10-14T06:59:09.607Z,13.25
2022-10-14T07:00:11.461Z,13.25
2022-10-14T07:01:12.926Z,13.25
2022-10-14T07:02:14.439Z,13.27
2022-10-14T07:03:15.893Z,13.28
2022-10-14T07:04:17.422Z,13.28
2022-10-14T07:05:18.881Z,13.29
2022-10-14T07:06:20.340Z,13.30
2022-10-14T07:07:21.883Z,13.31
2022-10-14T07:08:23.358Z,13.31
2022-10-14T07:09:25.118Z,13.31
2022-10-14T07:10:26.972Z,13.34
2022-10-14T07:11:28.466Z,13.36
2022-10-14T07:12:30.089Z,13.37
2022-10-14T07:13:34.488Z,13.39
2022-10-14T07:14:36.104Z,13.40
2022-10-14T07:15:38.670Z,13.42
2022-10-14T07:16:43.216Z,13.41
2022-10-14T07:17:44.679Z,13.42
2022-10-14T07:18:46.166Z,13.45
2022-10-14T07:19:47.618Z,13.47
2022-10-14T07:20:49.167Z,13.48
2022-10-14T07:21:50.677Z,13.51
2022-10-14T07:22:56.228Z,13.53
2022-10-14T07:23:57.670Z,13.54
2022-10-14T07:24:59.455Z,13.55
2022-10-14T07:26:01.292Z,13.57
2022-10-14T07:28:09.963Z,13.60
2022-10-14T07:29:11.631Z,13.58
2022-10-14T07:30:16.734Z,13.60
2022-10-14T07:32:20.832Z,13.62
2022-10-14T07:33:22.391Z,13.65
2022-10-14T07:34:23.925Z,13.66
2022-10-14T07:35:27.263Z,13.66
2022-10-14T07:36:28.867Z,13.68
2022-10-14T07:37:30.367Z,13.69
2022-10-14T07:38:32.538Z,13.70
2022-10-14T07:39:34.521Z,13.71
2022-10-14T07:40:36.053Z,13.72
2022-10-14T07:41:38.588Z,13.72
2022-10-14T07:42:40.120Z,13.75
2022-10-14T07:43:42.043Z,13.76
2022-10-14T07:44:43.586Z,13.77
2022-10-14T07:45:47.787Z,13.79
2022-10-14T07:46:49.231Z,13.80
2022-10-14T07:47:51.140Z,13.81
2022-10-14T07:48:57.165Z,13.82
2022-10-14T07:50:00.483Z,13.84
2022-10-14T07:51:02.755Z,13.84
2022-10-14T07:52:04.339Z,13.86
2022-10-14T07:53:05.776Z,13.88
2022-10-14T07:54:12.046Z,13.91
2022-10-14T07:55:13.927Z,13.92
2022-10-14T07:56:15.358Z,13.97
2022-10-14T07:57:16.849Z,13.99
2022-10-14T07:58:24.226Z,13.96
2022-10-14T07:59:26.443Z,13.94
2022-10-14T08:00:27.885Z,13.95
2022-10-14T08:01:29.405Z,13.96
2022-10-14T08:02:30.921Z,13.98
2022-10-14T08:03:32.567Z,13.99
2022-10-14T08:04:34.230Z,14.01
2022-10-14T08:05:38.525Z,14.03
2022-10-14T08:06:40.796Z,14.05
2022-10-14T08:07:42.270Z,14.05
2022-10-14T08:08:44.112Z,14.09
2022-10-14T08:09:45.608Z,14.09
2022-10-14T08:10:47.075Z,14.14
2022-10-14T08:11:49.081Z,14.18
2022-10-14T08:12:51.327Z,14.15
2022-10-14T08:13:53.665Z,14.15
2022-10-14T08:14:57.661Z,14.18
2022-10-14T08:15:59.257Z,14.19
2022-10-14T08:17:00.978Z,14.23
2022-10-14T08:18:02.497Z,14.27
2022-10-14T08:19:11.021Z,14.30
2022-10-14T08:20:15.326Z,14.30
2022-10-14T08:21:18.707Z,14.19
2022-10-14T08:22:20.438Z,14.19
2022-10-14T08:23:22.247Z,14.21
2022-10-14T08:24:23.795Z,14.15
2022-10-14T08:25:25.285Z,14.05
2022-10-14T08:26:29.869Z,14.06
2022-10-14T08:27:31.359Z,14.14
2022-10-14T08:28:32.869Z,14.21
2022-10-14T08:29:34.664Z,14.18
2022-10-14T08:30:36.223Z,14.22
2022-10-14T08:31:38.292Z,14.25
2022-10-14T08:32:39.740Z,14.29
2022-10-14T08:33:41.269Z,14.33
2022-10-14T08:34:42.810Z,14.28
2022-10-14T08:35:44.327Z,14.25
2022-10-14T08:36:45.754Z,14.31
2022-10-14T08:37:58.191Z,14.41
2022-10-14T08:38:59.722Z,14.45
2022-10-14T08:40:01.315Z,14.51
2022-10-14T08:41:16.308Z,14.63
2022-10-14T08:42:44.170Z,14.87
2022-10-14T08:43:50.690Z,14.83
2022-10-14T08:44:58.047Z,14.78
2022-10-14T08:46:30.752Z,14.84
2022-10-14T08:47:37.376Z,14.79
2022-10-14T08:48:39.328Z,14.73
2022-10-14T08:49:53.018Z,14.75
2022-10-14T08:51:03.196Z,14.79
2022-10-14T08:52:15.533Z,14.80
2022-10-14T08:53:22.608Z,14.83
2022-10-14T08:54:49.506Z,14.90
2022-10-14T08:55:54.764Z,15.04
2022-10-14T08:56:57.551Z,15.09
2022-10-14T08:58:10.420Z,15.09
2022-10-14T08:59:16.076Z,15.08
2022-10-14T09:00:19.405Z,15.11
2022-10-14T09:01:31.226Z,15.10
2022-10-14T09:02:48.041Z,15.11
2022-10-14T09:03:53.672Z,15.16
2022-10-14T09:04:56.681Z,15.08
2022-10-14T09:06:02.071Z,15.09
2022-10-14T09:07:04.924Z,14.98
2022-10-14T09:08:08.216Z,14.97
2022-10-14T09:09:40.586Z,15.00
2022-10-14T09:10:43.348Z,14.97
2022-10-14T09:11:51.430Z,15.03
2022-10-14T09:12:56.848Z,15.04
2022-10-14T09:14:00.968Z,15.10
2022-10-14T09:15:19.190Z,15.15
2022-10-14T09:16:24.205Z,15.26
2022-10-14T09:17:32.747Z,15.29
2022-10-14T09:18:43.219Z,15.19
2022-10-14T09:19:56.643Z,15.23
2022-10-14T09:20:58.980Z,15.25
2022-10-14T09:22:02.124Z,15.21
2022-10-14T09:23:18.332Z,14.95
2022-10-14T09:24:24.014Z,14.96
2022-10-14T09:25:25.520Z,14.90
2022-10-14T09:26:37.557Z,14.94
2022-10-14T09:27:39.048Z,15.02
2022-10-14T09:28:43.579Z,15.08
2022-10-14T09:29:48.817Z,15.15
2022-10-14T09:30:50.269Z,15.21
2022-10-14T09:31:53.335Z,15.34
2022-10-14T09:32:55.318Z,15.45
2022-10-14T09:33:56.888Z,15.45
2022-10-14T09:34:59.451Z,15.47
2022-10-14T09:36:01.080Z,15.36
2022-10-14T09:37:25.768Z,15.41
2022-10-14T09:38:27.903Z,15.35
2022-10-14T09:39:29.896Z,15.25
2022-10-14T09:40:37.180Z,15.18
2022-10-14T09:41:38.986Z,15.16
2022-10-14T09:43:11.331Z,15.29
2022-10-14T09:44:21.190Z,15.31
2022-10-14T09:45:27.859Z,15.29
2022-10-14T09:46:29.440Z,15.33
2022-10-14T09:47:31.573Z,15.42
2022-10-14T09:48:47.893Z,15.58
2022-10-14T09:49:49.829Z,15.76
2022-10-14T09:50:57.116Z,15.87
2022-10-14T09:51:58.686Z,15.85
2022-10-14T09:53:03.837Z,15.74
2022-10-14T09:54:05.517Z,15.67
2022-10-14T09:55:20.982Z,15.72
2022-10-14T09:56:40.692Z,15.54
2022-10-14T09:57:44.553Z,15.59
2022-10-14T09:58:55.359Z,15.65
2022-10-14T10:00:04.133Z,15.69
2022-10-14T10:01:06.146Z,15.72
2022-10-14T10:02:34.034Z,15.72
2022-10-14T10:03:35.668Z,15.72
2022-10-14T10:04:47.766Z,15.78
2022-10-14T10:06:00.098Z,15.80
2022-10-14T10:07:23.854Z,15.82
2022-10-14T10:08:26.679Z,15.79
2022-10-14T10:09:28.420Z,15.82
2022-10-14T10:10:30.863Z,15.85
2022-10-14T10:11:40.513Z,15.91
2022-10-14T10:12:46.870Z,15.96
2022-10-14T10:13:48.320Z,15.99
2022-10-14T10:14:58.268Z,15.96
2022-10-14T10:16:03.301Z,15.81
2022-10-14T10:17:07.877Z,15.91
2022-10-14T10:18:18.977Z,16.00
2022-10-14T10:19:33.173Z,16.21
2022-10-14T10:20:36.323Z,16.26
2022-10-14T10:21:37.784Z,16.27
2022-10-14T10:22:39.918Z,16.19
2022-10-14T10:23:55.850Z,16.14
2022-10-14T10:25:03.774Z,16.14
2022-10-14T10:26:26.030Z,16.21
2022-10-14T10:27:37.356Z,16.25
2022-10-14T10:28:46.162Z,16.18
2022-10-14T10:29:47.852Z,16.21
2022-10-14T10:31:18.491Z,16.14
2022-10-14T10:32:30.207Z,16.10
2022-10-14T10:33:43.465Z,16.18
2022-10-14T10:35:03.020Z,16.11
2022-10-14T10:36:23.285Z,16.26
2022-10-14T10:37:31.481Z,16.37
2022-10-14T10:38:51.553Z,16.41
2022-10-14T10:40:08.494Z,16.45
2022-10-14T10:41:48.413Z,16.44
2022-10-14T10:43:27.039Z,16.58
2022-10-14T10:44:48.919Z,16.53
2022-10-14T10:45:50.345Z,16.51
2022-10-14T10:47:15.415Z,16.56
2022-10-14T10:48:47.440Z,16.67
2022-10-14T10:50:08.277Z,16.76
2022-10-14T10:51:37.953Z,16.83
2022-10-14T10:53:04.392Z,16.74
2022-10-14T10:54:31.394Z,16.79
2022-10-14T10:56:00.332Z,16.86
2022-10-14T10:57:18.571Z,16.68
2022-10-14T10:58:20.051Z,16.66
2022-10-14T10:59:44.356Z,16.64
2022-10-14T11:01:01.971Z,16.56
2022-10-14T11:02:38.628Z,16.78
2022-10-14T11:03:49.439Z,16.87
2022-10-14T11:05:00.743Z,16.93
2022-10-14T11:06:39.873Z,16.80
2022-10-14T11:08:13.012Z,16.56
2022-10-14T11:09:49.472Z,16.69
2022-10-14T11:11:19.654Z,16.81
2022-10-14T11:12:26.709Z,16.88
2022-10-14T11:13:56.427Z,16.75
2022-10-14T11:17:04.006Z,16.88
2022-10-14T11:18:45.111Z,17.09
2022-10-14T11:19:59.256Z,17.21
2022-10-14T11:21:12.113Z,17.12
2022-10-14T11:22:35.765Z,17.20
2022-10-14T11:23:59.567Z,17.14
2022-10-14T11:25:33.248Z,16.84
2022-10-14T11:26:46.840Z,16.67
2022-10-14T11:28:06.959Z,16.70
2022-10-14T11:29:35.406Z,16.82
2022-10-14T11:31:04.010Z,16.89
2022-10-14T11:32:20.497Z,16.98
2022-10-14T11:33:44.744Z,16.99
2022-10-14T11:34:52.109Z,16.96
2022-10-14T11:36:25.044Z,16.88
2022-10-14T11:37:35.439Z,16.59
2022-10-14T11:39:15.384Z,16.58
2022-10-14T11:40:32.266Z,16.57
2022-10-14T11:42:01.421Z,16.51
2022-10-14T11:43:22.351Z,16.58
2022-10-14T11:44:42.674Z,16.67
2022-10-14T11:46:01.734Z,16.64
2022-10-14T11:47:12.259Z,16.62
2022-10-14T11:48:21.914Z,16.60
2022-10-14T11:49:36.709Z,16.67
2022-10-14T11:50:42.820Z,16.79
2022-10-14T11:51:52.875Z,16.79
2022-10-14T11:53:08.645Z,16.91
2022-10-14T11:54:18.727Z,16.82
2022-10-14T11:55:24.126Z,16.93
2022-10-14T11:56:29.741Z,16.98
2022-10-14T11:57:41.804Z,16.81
2022-10-14T11:58:45.793Z,16.68
2022-10-14T12:01:35.811Z,16.46
2022-10-14T12:02:48.538Z,16.51
2022-10-14T12:03:52.807Z,16.56
2022-10-14T12:05:19.347Z,16.67
2022-10-14T12:06:43.790Z,16.71
2022-10-14T12:07:54.363Z,16.73
2022-10-14T12:09:00.467Z,16.79
2022-10-14T12:10:15.570Z,16.87
2022-10-14T12:11:28.108Z,16.89
2022-10-14T12:12:35.497Z,16.94
2022-10-14T12:13:49.232Z,16.98
2022-10-14T12:15:16.189Z,17.06
2022-10-14T12:16:20.260Z,16.99
2022-10-14T12:17:30.231Z,16.92
2022-10-14T12:18:33.121Z,16.74
2022-10-14T12:19:37.068Z,16.76
2022-10-14T12:20:52.233Z,16.73
2022-10-14T12:22:12.745Z,16.81
2022-10-14T12:23:36.852Z,17.02
2022-10-14T12:24:43.412Z,17.07
2022-10-14T12:26:03.572Z,16.95
2022-10-14T12:27:10.350Z,16.91
2022-10-14T12:28:13.959Z,16.94
2022-10-14T12:29:19.592Z,16.99
2022-10-14T12:30:40.288Z,17.08
2022-10-14T12:31:42.084Z,17.03
2022-10-14T12:33:08.324Z,16.99
2022-10-14T12:34:15.837Z,17.18
2022-10-14T12:35:46.618Z,17.17
2022-10-14T12:36:50.733Z,17.13
2022-10-14T12:37:52.672Z,17.12
2022-10-14T12:39:19.246Z,16.93
2022-10-14T12:40:27.020Z,16.85
2022-10-14T12:41:40.307Z,16.78
2022-10-14T12:42:44.486Z,16.78
2022-10-14T12:44:03.081Z,16.87
2022-10-14T12:45:20.955Z,16.65
2022-10-14T12:46:22.511Z,16.64
2022-10-14T12:47:32.182Z,16.69
2022-10-14T12:48:35.755Z,16.77
2022-10-14T12:49:37.612Z,16.82
2022-10-14T12:50:42.606Z,16.86
2022-10-14T12:51:55.582Z,16.81
2022-10-14T12:53:02.973Z,16.85
2022-10-14T12:54:15.078Z,16.88
2022-10-14T12:55:19.934Z,16.83
2022-10-14T12:56:35.146Z,16.74
2022-10-14T12:57:40.224Z,16.75
2022-10-14T12:59:02.326Z,16.68
2022-10-14T13:00:23.806Z,16.64
2022-10-14T13:01:25.418Z,16.72
2022-10-14T13:02:36.481Z,16.78
2022-10-14T13:03:44.872Z,16.79
2022-10-14T13:04:48.879Z,16.82
2022-10-14T13:05:51.052Z,16.74
2022-10-14T13:07:38.856Z,16.89
2022-10-14T13:08:38.802Z,16.72
2022-10-14T13:09:40.450Z,16.71
2022-10-14T13:10:50.970Z,16.76
2022-10-14T13:11:52.343Z,16.74
2022-10-14T13:12:54.195Z,16.70
2022-10-14T13:14:01.072Z,16.68
2022-10-14T13:15:24.464Z,16.59
2022-10-14T13:16:26.185Z,16.58
2022-10-14T13:17:46.501Z,16.57
2022-10-14T13:18:59.615Z,16.57
2022-10-14T13:20:01.121Z,16.50
2022-10-14T13:21:05.110Z,16.54
2022-10-14T13:22:35.500Z,16.63
2022-10-14T13:23:44.730Z,16.73
2022-10-14T13:24:46.246Z,16.68
2022-10-14T13:25:51.709Z,16.78
2022-10-14T13:26:53.431Z,16.82
2022-10-14T13:28:26.904Z,16.87
2022-10-14T13:29:30.236Z,16.84
2022-10-14T13:30:37.278Z,16.86
2022-10-14T13:32:04.185Z,16.89
2022-10-14T13:33:22.517Z,16.95
2022-10-14T13:34:44.399Z,16.88
2022-10-14T13:35:51.420Z,16.84
2022-10-14T13:37:33.798Z,16.84
2022-10-14T13:38:35.553Z,16.74
2022-10-14T13:39:38.611Z,16.71
2022-10-14T13:40:45.464Z,16.71
2022-10-14T13:41:48.040Z,16.77
2022-10-14T13:42:56.319Z,16.78
2022-10-14T13:43:59.617Z,16.79
2022-10-14T13:45:13.814Z,16.83
2022-10-14T13:46:27.433Z,16.87
2022-10-14T13:47:28.938Z,16.89
2022-10-14T13:48:39.223Z,16.88
2022-10-14T13:49:41.771Z,16.92
2022-10-14T13:50:44.329Z,16.85
2022-10-14T13:51:51.756Z,16.72
2022-10-14T13:52:58.759Z,16.73
2022-10-14T13:54:15.366Z,16.79
2022-10-14T13:55:20.115Z,16.77
2022-10-14T13:56:27.883Z,16.72
2022-10-14T13:57:48.209Z,16.78
2022-10-14T13:58:51.058Z,16.93
2022-10-14T14:01:14.215Z,16.94
2022-10-14T14:02:21.388Z,16.89
2022-10-14T14:03:23.024Z,16.83
2022-10-14T14:04:28.864Z,16.93
2022-10-14T14:05:35.124Z,16.99
2022-10-14T14:07:03.412Z,17.08
2022-10-14T14:08:42.429Z,17.12
2022-10-14T14:09:35.106Z,17.11
2022-10-14T14:10:51.448Z,17.06
2022-10-14T14:12:03.354Z,16.97
2022-10-14T14:13:05.768Z,16.96
2022-10-14T14:14:16.338Z,16.94
2022-10-14T14:15:26.501Z,17.00
2022-10-14T14:16:35.201Z,17.04
2022-10-14T14:17:37.117Z,17.20
2022-10-14T14:18:56.266Z,17.28
2022-10-14T14:20:02.112Z,17.23
2022-10-14T14:21:04.135Z,17.17
2022-10-14T14:22:18.801Z,17.18
2022-10-14T14:23:20.555Z,17.01
2022-10-14T14:24:25.673Z,16.97
2022-10-14T14:25:43.295Z,16.95
2022-10-14T14:26:55.809Z,16.91
2022-10-14T14:28:01.134Z,16.91